sensor_id;sensor_type;location;lat;lon;timestamp;pressure;altitude;pressure_sealevel;temperature;humidity
10079;BME280;5078;42.544;22.966;2023-02-04T00:01:43;93763.84;;;1.08;95.98
10079;BME280;5078;42.544;22.966;2023-02-04T00:04:11;93771.69;;;1.08;100.00
10079;BME280;5078;42.544;22.966;2023-02-04T00:06:40;93759.25;;;0.89;100.00
10079;BME280;5078;42.544;22.966;2023-02-04T00:09:06;93764.22;;;1.03;100.00
10079;BME280;5078;42.544;22.966;2023-02-04T00:11:33;93755.28;;;1.17;100.00
10079;BME280;5078;42.544;22.966;2023-02-04T00:14:00;93752.59;;;1.07;100.00
10079;BME280;5078;42.544;22.966;2023-02-04T00:16:26;93758.28;;;1.13;100.00
10079;BME280;5078;42.544;22.966;2023-02-04T00:18:53;93756.34;;;1.15;100.00
10079;BME280;5078;42.544;22.966;2023-02-04T00:21:20;93717.44;;;1.12;100.00
10079;BME280;5078;42.544;22.966;2023-02-04T00:23:48;93751.94;;;1.26;100.00
10079;BME280;5078;42.544;22.966;2023-02-04T00:26:15;93738.69;;;1.07;100.00
10079;BME280;5078;42.544;22.966;2023-02-04T00:28:42;93753.16;;;1.00;100.00
10079;BME280;5078;42.544;22.966;2023-02-04T00:31:09;93750.19;;;1.04;100.00
10079;BME280;5078;42.544;22.966;2023-02-04T00:33:35;93757.34;;;0.80;100.00
10079;BME280;5078;42.544;22.966;2023-02-04T00:36:02;93745.16;;;0.80;100.00
10079;BME280;5078;42.544;22.966;2023-02-04T00:38:29;93753.56;;;0.73;100.00
10079;BME280;5078;42.544;22.966;2023-02-04T00:40:57;93749.41;;;0.81;100.00
10079;BME280;5078;42.544;22.966;2023-02-04T00:43:24;93754.25;;;0.86;100.00
10079;BME280;5078;42.544;22.966;2023-02-04T00:45:51;93752.13;;;0.80;100.00
10079;BME280;5078;42.544;22.966;2023-02-04T00:48:17;93745.97;;;0.81;100.00
10079;BME280;5078;42.544;22.966;2023-02-04T00:50:44;93740.03;;;0.79;100.00
10079;BME280;5078;42.544;22.966;2023-02-04T00:53:11;93745.59;;;0.74;100.00
10079;BME280;5078;42.544;22.966;2023-02-04T00:55:37;93737.19;;;0.82;100.00
10079;BME280;5078;42.544;22.966;2023-02-04T00:58:05;93726.75;;;0.71;100.00
10079;BME280;5078;42.544;22.966;2023-02-04T01:00:32;93728.41;;;0.83;100.00
10079;BME280;5078;42.544;22.966;2023-02-04T01:02:59;93730.09;;;0.73;100.00
10079;BME280;5078;42.544;22.966;2023-02-04T01:05:25;93729.03;;;0.75;100.00
10079;BME280;5078;42.544;22.966;2023-02-04T01:07:52;93716.31;;;0.82;100.00
10079;BME280;5078;42.544;22.966;2023-02-04T01:10:19;93714.63;;;0.92;100.00
10079;BME280;5078;42.544;22.966;2023-02-04T01:12:46;93722.09;;;0.97;100.00
10079;BME280;5078;42.544;22.966;2023-02-04T01:15:14;93714.72;;;1.02;100.00
10079;BME280;5078;42.544;22.966;2023-02-04T01:17:41;93707.53;;;0.83;100.00
10079;BME280;5078;42.544;22.966;2023-02-04T01:20:08;93713.47;;;0.85;100.00
10079;BME280;5078;42.544;22.966;2023-02-04T01:22:35;93699.34;;;0.76;100.00
10079;BME280;5078;42.544;22.966;2023-02-04T01:25:02;93690.56;;;0.89;100.00
10079;BME280;5078;42.544;22.966;2023-02-04T01:27:29;93689.38;;;0.93;100.00
10079;BME280;5078;42.544;22.966;2023-02-04T01:29:56;93685.19;;;1.01;100.00
10079;BME280;5078;42.544;22.966;2023-02-04T01:32:24;93687.59;;;0.93;100.00
10079;BME280;5078;42.544;22.966;2023-02-04T01:34:51;93688.78;;;0.89;100.00
10079;BME280;5078;42.544;22.966;2023-02-04T01:37:17;93687.38;;;0.85;100.00
10079;BME280;5078;42.544;22.966;2023-02-04T01:39:44;93681.09;;;0.88;100.00
10079;BME280;5078;42.544;22.966;2023-02-04T01:42:11;93680.97;;;0.78;100.00
10079;BME280;5078;42.544;22.966;2023-02-04T01:44:38;93675.00;;;0.87;100.00
10079;BME280;5078;42.544;22.966;2023-02-04T01:47:05;93683.34;;;0.70;100.00
10079;BME280;5078;42.544;22.966;2023-02-04T01:49:33;93671.47;;;0.77;100.00
10079;BME280;5078;42.544;22.966;2023-02-04T01:52:00;93655.81;;;0.77;100.00
10079;BME280;5078;42.544;22.966;2023-02-04T01:54:27;93669.06;;;0.96;100.00
10079;BME280;5078;42.544;22.966;2023-02-04T01:56:54;93661.03;;;0.88;100.00
10079;BME280;5078;42.544;22.966;2023-02-04T01:59:21;93661.03;;;0.77;100.00
10079;BME280;5078;42.544;22.966;2023-02-04T02:01:50;93657.13;;;0.82;100.00
10079;BME280;5078;42.544;22.966;2023-02-04T02:04:20;93654.13;;;0.87;100.00
10079;BME280;5078;42.544;22.966;2023-02-04T02:06:52;93640.94;;;0.56;100.00
10079;BME280;5078;42.544;22.966;2023-02-04T02:09:22;93652.94;;;0.91;100.00
10079;BME280;5078;42.544;22.966;2023-02-04T02:11:48;93639.69;;;0.83;100.00
10079;BME280;5078;42.544;22.966;2023-02-04T02:14:15;93645.63;;;0.85;100.00
10079;BME280;5078;42.544;22.966;2023-02-04T02:19:19;93628.78;;;0.78;100.00
10079;BME280;5078;42.544;22.966;2023-02-04T02:21:54;93628.75;;;0.89;100.00
10079;BME280;5078;42.544;22.966;2023-02-04T02:24:27;93614.63;;;0.92;100.00
10079;BME280;5078;42.544;22.966;2023-02-04T02:26:55;93615.28;;;0.73;100.00
10079;BME280;5078;42.544;22.966;2023-02-04T02:29:22;93600.78;;;0.80;100.00
10079;BME280;5078;42.544;22.966;2023-02-04T02:31:49;93601.63;;;0.80;100.00
10079;BME280;5078;42.544;22.966;2023-02-04T02:34:16;93589.31;;;0.71;100.00
10079;BME280;5078;42.544;22.966;2023-02-04T02:36:43;93591.94;;;0.60;100.00
10079;BME280;5078;42.544;22.966;2023-02-04T02:39:10;93592.25;;;0.78;100.00
10079;BME280;5078;42.544;22.966;2023-02-04T02:41:39;93586.69;;;0.82;100.00
10079;BME280;5078;42.544;22.966;2023-02-04T02:44:06;93595.34;;;0.83;100.00
10079;BME280;5078;42.544;22.966;2023-02-04T02:46:33;93588.50;;;0.71;100.00
10079;BME280;5078;42.544;22.966;2023-02-04T02:48:59;93587.13;;;0.55;100.00
10079;BME280;5078;42.544;22.966;2023-02-04T02:51:27;93582.16;;;0.41;100.00
10079;BME280;5078;42.544;22.966;2023-02-04T02:53:54;93585.47;;;0.43;100.00
10079;BME280;5078;42.544;22.966;2023-02-04T02:56:20;93590.41;;;0.57;100.00
10079;BME280;5078;42.544;22.966;2023-02-04T02:58:49;93571.81;;;0.51;100.00
10079;BME280;5078;42.544;22.966;2023-02-04T03:01:15;93577.63;;;0.54;100.00
10079;BME280;5078;42.544;22.966;2023-02-04T03:03:44;93568.63;;;0.47;100.00
10079;BME280;5078;42.544;22.966;2023-02-04T03:06:15;93548.34;;;0.51;100.00
10079;BME280;5078;42.544;22.966;2023-02-04T03:08:45;93548.34;;;0.51;100.00
10079;BME280;5078;42.544;22.966;2023-02-04T03:11:14;93556.09;;;0.30;100.00
10079;BME280;5078;42.544;22.966;2023-02-04T03:13:40;93552.06;;;0.37;100.00
10079;BME280;5078;42.544;22.966;2023-02-04T03:16:09;93542.09;;;0.42;100.00
10079;BME280;5078;42.544;22.966;2023-02-04T03:18:36;93539.94;;;0.47;100.00
10079;BME280;5078;42.544;22.966;2023-02-04T03:21:04;93538.91;;;0.38;100.00
10079;BME280;5078;42.544;22.966;2023-02-04T03:23:33;93529.91;;;0.42;100.00
10079;BME280;5078;42.544;22.966;2023-02-04T03:26:00;93525.00;;;0.49;100.00
10079;BME280;5078;42.544;22.966;2023-02-04T03:28:29;93531.03;;;0.50;100.00
10079;BME280;5078;42.544;22.966;2023-02-04T03:30:56;93539.81;;;0.49;100.00
10079;BME280;5078;42.544;22.966;2023-02-04T03:33:26;93531.78;;;0.40;100.00
10079;BME280;5078;42.544;22.966;2023-02-04T03:35:56;93543.00;;;0.52;100.00
10079;BME280;5078;42.544;22.966;2023-02-04T03:38:22;93543.97;;;0.51;100.00
10079;BME280;5078;42.544;22.966;2023-02-04T03:40:49;93547.03;;;0.56;100.00
10079;BME280;5078;42.544;22.966;2023-02-04T03:43:16;93537.31;;;0.47;100.00
10079;BME280;5078;42.544;22.966;2023-02-04T03:45:42;93537.66;;;0.54;100.00
10079;BME280;5078;42.544;22.966;2023-02-04T03:48:09;93532.25;;;0.46;100.00
10079;BME280;5078;42.544;22.966;2023-02-04T03:50:37;93527.75;;;0.48;100.00
10079;BME280;5078;42.544;22.966;2023-02-04T03:53:04;93526.78;;;0.49;100.00
10079;BME280;5078;42.544;22.966;2023-02-04T03:55:31;93518.53;;;0.64;100.00
10079;BME280;5078;42.544;22.966;2023-02-04T03:57:58;93522.09;;;0.63;100.00
10079;BME280;5078;42.544;22.966;2023-02-04T04:00:24;93509.81;;;0.54;100.00
10079;BME280;5078;42.544;22.966;2023-02-04T04:02:51;93510.47;;;0.68;100.00
10079;BME280;5078;42.544;22.966;2023-02-04T04:05:18;93501.50;;;0.60;100.00
10079;BME280;5078;42.544;22.966;2023-02-04T04:07:46;93492.50;;;0.53;100.00
10079;BME280;5078;42.544;22.966;2023-02-04T04:10:13;93496.06;;;0.52;100.00
10079;BME280;5078;42.544;22.966;2023-02-04T04:12:40;93466.59;;;0.40;100.00
10079;BME280;5078;42.544;22.966;2023-02-04T04:15:08;93505.03;;;0.59;100.00
10079;BME280;5078;42.544;22.966;2023-02-04T04:17:34;93498.44;;;0.76;100.00
10079;BME280;5078;42.544;22.966;2023-02-04T04:20:01;93493.78;;;0.80;100.00
10079;BME280;5078;42.544;22.966;2023-02-04T04:22:28;93487.25;;;0.85;100.00
10079;BME280;5078;42.544;22.966;2023-02-04T04:24:56;93492.25;;;0.77;100.00
10079;BME280;5078;42.544;22.966;2023-02-04T04:27:23;93483.06;;;0.73;100.00
10079;BME280;5078;42.544;22.966;2023-02-04T04:29:50;93492.59;;;0.84;100.00
10079;BME280;5078;42.544;22.966;2023-02-04T04:32:17;93498.53;;;0.86;100.00
10079;BME280;5078;42.544;22.966;2023-02-04T04:34:43;93490.44;;;0.89;100.00
10079;BME280;5078;42.544;22.966;2023-02-04T04:37:10;93491.03;;;0.93;100.00
10079;BME280;5078;42.544;22.966;2023-02-04T04:39:37;93494.38;;;1.04;100.00
10079;BME280;5078;42.544;22.966;2023-02-04T04:42:05;93496.66;;;1.19;100.00
10079;BME280;5078;42.544;22.966;2023-02-04T04:44:32;93500.53;;;1.24;100.00
10079;BME280;5078;42.544;22.966;2023-02-04T04:46:58;93492.47;;;1.27;100.00
10079;BME280;5078;42.544;22.966;2023-02-04T04:49:25;93496.91;;;1.37;100.00
10079;BME280;5078;42.544;22.966;2023-02-04T04:51:52;93498.13;;;1.33;100.00
10079;BME280;5078;42.544;22.966;2023-02-04T04:54:18;93507.19;;;1.07;100.00
10079;BME280;5078;42.544;22.966;2023-02-04T04:56:45;93514.31;;;1.26;100.00
10079;BME280;5078;42.544;22.966;2023-02-04T04:59:13;93511.94;;;1.23;100.00
10079;BME280;5078;42.544;22.966;2023-02-04T05:01:40;93518.09;;;1.13;100.00
10079;BME280;5078;42.544;22.966;2023-02-04T05:04:06;93513.03;;;1.21;100.00
10079;BME280;5078;42.544;22.966;2023-02-04T05:06:33;93517.63;;;1.07;100.00
10079;BME280;5078;42.544;22.966;2023-02-04T05:09:00;93515.31;;;1.14;100.00
10079;BME280;5078;42.544;22.966;2023-02-04T05:11:26;93516.28;;;1.13;100.00
10079;BME280;5078;42.544;22.966;2023-02-04T05:13:53;93527.50;;;1.25;100.00
10079;BME280;5078;42.544;22.966;2023-02-04T05:16:21;93516.09;;;1.26;100.00
10079;BME280;5078;42.544;22.966;2023-02-04T05:18:48;93515.97;;;1.27;100.00
10079;BME280;5078;42.544;22.966;2023-02-04T05:21:15;93519.09;;;1.42;100.00
10079;BME280;5078;42.544;22.966;2023-02-04T05:23:41;93516.91;;;1.47;100.00
10079;BME280;5078;42.544;22.966;2023-02-04T05:26:08;93516.31;;;1.44;100.00
10079;BME280;5078;42.544;22.966;2023-02-04T05:28:35;93535.59;;;1.43;100.00
10079;BME280;5078;42.544;22.966;2023-02-04T05:31:01;93540.47;;;1.36;100.00
10079;BME280;5078;42.544;22.966;2023-02-04T05:33:30;93538.91;;;1.45;100.00
10079;BME280;5078;42.544;22.966;2023-02-04T05:35:56;93544.56;;;1.29;100.00
10079;BME280;5078;42.544;22.966;2023-02-04T05:38:23;93540.59;;;1.35;100.00
10079;BME280;5078;42.544;22.966;2023-02-04T05:40:50;93523.03;;;1.16;100.00
10079;BME280;5078;42.544;22.966;2023-02-04T05:43:16;93523.22;;;1.24;100.00
10079;BME280;5078;42.544;22.966;2023-02-04T05:45:43;93524.88;;;1.46;100.00
10079;BME280;5078;42.544;22.966;2023-02-04T05:48:10;93531.50;;;1.29;100.00
10079;BME280;5078;42.544;22.966;2023-02-04T05:50:38;93543.97;;;0.83;100.00
10079;BME280;5078;42.544;22.966;2023-02-04T05:53:05;93539.97;;;1.00;100.00
10079;BME280;5078;42.544;22.966;2023-02-04T05:55:32;93538.53;;;1.07;100.00
10079;BME280;5078;42.544;22.966;2023-02-04T05:57:59;93539.38;;;0.97;100.00
10079;BME280;5078;42.544;22.966;2023-02-04T06:00:29;93541.53;;;0.92;100.00
10079;BME280;5078;42.544;22.966;2023-02-04T06:02:57;93548.00;;;1.08;100.00
10079;BME280;5078;42.544;22.966;2023-02-04T06:05:25;93534.84;;;1.10;100.00
10079;BME280;5078;42.544;22.966;2023-02-04T06:07:53;93530.34;;;1.01;100.00
10079;BME280;5078;42.544;22.966;2023-02-04T06:10:20;93520.38;;;1.06;100.00
10079;BME280;5078;42.544;22.966;2023-02-04T06:12:47;93525.38;;;1.19;100.00
10079;BME280;5078;42.544;22.966;2023-02-04T06:15:14;93528.00;;;1.19;100.00
10079;BME280;5078;42.544;22.966;2023-02-04T06:17:41;93532.19;;;1.31;100.00
10079;BME280;5078;42.544;22.966;2023-02-04T06:20:09;93527.63;;;1.23;100.00
10079;BME280;5078;42.544;22.966;2023-02-04T06:22:36;93537.44;;;1.31;100.00
10079;BME280;5078;42.544;22.966;2023-02-04T06:25:05;93529.75;;;1.39;100.00
10079;BME280;5078;42.544;22.966;2023-02-04T06:27:32;93527.38;;;1.57;100.00
10079;BME280;5078;42.544;22.966;2023-02-04T06:29:59;93528.78;;;1.61;100.00
10079;BME280;5078;42.544;22.966;2023-02-04T06:32:26;93529.81;;;1.70;100.00
10079;BME280;5078;42.544;22.966;2023-02-04T06:34:52;93535.72;;;1.72;100.00
10079;BME280;5078;42.544;22.966;2023-02-04T06:37:19;93531.13;;;1.64;100.00
10079;BME280;5078;42.544;22.966;2023-02-04T06:39:46;93518.38;;;1.71;100.00
10079;BME280;5078;42.544;22.966;2023-02-04T06:42:14;93527.75;;;1.73;100.00
10079;BME280;5078;42.544;22.966;2023-02-04T06:44:41;93525.94;;;1.43;100.00
10079;BME280;5078;42.544;22.966;2023-02-04T06:47:07;93523.94;;;1.57;100.00
10079;BME280;5078;42.544;22.966;2023-02-04T06:49:34;93526.78;;;1.44;100.00
10079;BME280;5078;42.544;22.966;2023-02-04T06:52:01;93510.41;;;1.42;100.00
10079;BME280;5078;42.544;22.966;2023-02-04T06:54:27;93521.00;;;1.40;100.00
10079;BME280;5078;42.544;22.966;2023-02-04T06:56:54;93522.81;;;1.49;100.00
10079;BME280;5078;42.544;22.966;2023-02-04T06:59:29;93520.56;;;1.35;100.00
10079;BME280;5078;42.544;22.966;2023-02-04T07:01:57;93516.75;;;1.49;100.00
10079;BME280;5078;42.544;22.966;2023-02-04T07:04:24;93524.38;;;1.62;100.00
10079;BME280;5078;42.544;22.966;2023-02-04T07:06:50;93513.13;;;1.61;100.00
10079;BME280;5078;42.544;22.966;2023-02-04T07:09:17;93507.84;;;1.82;100.00
10079;BME280;5078;42.544;22.966;2023-02-04T07:11:44;93507.16;;;1.80;100.00
10079;BME280;5078;42.544;22.966;2023-02-04T07:14:11;93498.47;;;1.49;100.00
10079;BME280;5078;42.544;22.966;2023-02-04T07:16:39;93510.06;;;1.56;100.00
10079;BME280;5078;42.544;22.966;2023-02-04T07:19:06;93513.41;;;1.37;100.00
10079;BME280;5078;42.544;22.966;2023-02-04T07:21:33;93516.59;;;1.41;100.00
10079;BME280;5078;42.544;22.966;2023-02-04T07:24:00;93514.16;;;1.49;100.00
10079;BME280;5078;42.544;22.966;2023-02-04T07:26:26;93509.41;;;1.33;100.00
10079;BME280;5078;42.544;22.966;2023-02-04T07:28:53;93495.38;;;1.34;100.00
10079;BME280;5078;42.544;22.966;2023-02-04T07:31:20;93490.03;;;1.36;100.00
10079;BME280;5078;42.544;22.966;2023-02-04T07:33:48;93509.31;;;1.44;100.00
10079;BME280;5078;42.544;22.966;2023-02-04T07:36:15;93501.91;;;1.49;100.00
10079;BME280;5078;42.544;22.966;2023-02-04T07:38:42;93514.47;;;1.56;100.00
10079;BME280;5078;42.544;22.966;2023-02-04T07:41:08;93509.91;;;1.48;100.00
10079;BME280;5078;42.544;22.966;2023-02-04T07:43:35;93512.13;;;1.53;100.00
10079;BME280;5078;42.544;22.966;2023-02-04T07:46:02;93517.19;;;1.54;100.00
10079;BME280;5078;42.544;22.966;2023-02-04T07:48:28;93523.25;;;1.55;100.00
10079;BME280;5078;42.544;22.966;2023-02-04T07:50:57;93519.00;;;1.54;100.00
10079;BME280;5078;42.544;22.966;2023-02-04T07:53:23;93515.03;;;1.59;100.00
10079;BME280;5078;42.544;22.966;2023-02-04T07:55:50;93506.38;;;1.59;100.00
10079;BME280;5078;42.544;22.966;2023-02-04T07:58:17;93515.84;;;1.60;100.00
10079;BME280;5078;42.544;22.966;2023-02-04T08:00:44;93514.50;;;1.65;100.00
10079;BME280;5078;42.544;22.966;2023-02-04T08:03:11;93521.25;;;1.68;100.00
10079;BME280;5078;42.544;22.966;2023-02-04T08:05:37;93522.75;;;1.61;100.00
10079;BME280;5078;42.544;22.966;2023-02-04T08:08:37;93507.38;;;1.77;100.00
10079;BME280;5078;42.544;22.966;2023-02-04T08:11:29;93522.56;;;1.83;100.00
10079;BME280;5078;42.544;22.966;2023-02-04T08:13:56;93514.28;;;1.78;100.00
10079;BME280;5078;42.544;22.966;2023-02-04T08:16:23;93506.06;;;1.83;100.00
10079;BME280;5078;42.544;22.966;2023-02-04T08:18:49;93506.75;;;1.94;100.00
10079;BME280;5078;42.544;22.966;2023-02-04T08:21:16;93498.09;;;1.94;100.00
10079;BME280;5078;42.544;22.966;2023-02-04T08:23:44;93489.16;;;1.97;100.00
10079;BME280;5078;42.544;22.966;2023-02-04T08:26:11;93501.03;;;2.01;100.00
10079;BME280;5078;42.544;22.966;2023-02-04T08:28:38;93503.09;;;2.07;100.00
10079;BME280;5078;42.544;22.966;2023-02-04T08:31:05;93502.53;;;2.03;100.00
10079;BME280;5078;42.544;22.966;2023-02-04T08:33:36;93486.28;;;1.90;100.00
10079;BME280;5078;42.544;22.966;2023-02-04T08:36:03;93505.03;;;2.14;100.00
10079;BME280;5078;42.544;22.966;2023-02-04T08:38:30;93504.38;;;2.12;100.00
10079;BME280;5078;42.544;22.966;2023-02-04T08:40:58;93505.88;;;2.15;100.00
10079;BME280;5078;42.544;22.966;2023-02-04T08:43:25;93494.56;;;2.14;100.00
10079;BME280;5078;42.544;22.966;2023-02-04T08:45:52;93506.16;;;2.22;100.00
10079;BME280;5078;42.544;22.966;2023-02-04T08:48:19;93498.19;;;2.23;100.00
10079;BME280;5078;42.544;22.966;2023-02-04T08:50:45;93511.69;;;2.28;100.00
10079;BME280;5078;42.544;22.966;2023-02-04T08:53:12;93510.59;;;2.41;100.00
10079;BME280;5078;42.544;22.966;2023-02-04T08:55:39;93507.03;;;2.42;100.00
10079;BME280;5078;42.544;22.966;2023-02-04T08:58:07;93503.03;;;2.57;100.00
10079;BME280;5078;42.544;22.966;2023-02-04T09:00:34;93503.72;;;2.59;100.00
10079;BME280;5078;42.544;22.966;2023-02-04T09:03:01;93501.81;;;2.61;100.00
10079;BME280;5078;42.544;22.966;2023-02-04T09:05:28;93502.50;;;2.63;100.00
10079;BME280;5078;42.544;22.966;2023-02-04T09:07:55;93503.19;;;2.65;100.00
10079;BME280;5078;42.544;22.966;2023-02-04T09:10:21;93510.91;;;2.67;100.00
10079;BME280;5078;42.544;22.966;2023-02-04T09:12:48;93508.97;;;2.49;100.00
10079;BME280;5078;42.544;22.966;2023-02-04T09:15:22;93490.22;;;2.25;100.00
10079;BME280;5078;42.544;22.966;2023-02-04T09:17:49;93502.47;;;2.44;100.00
10079;BME280;5078;42.544;22.966;2023-02-04T09:20:18;93505.50;;;2.39;100.00
10079;BME280;5078;42.544;22.966;2023-02-04T09:22:45;93502.09;;;2.58;100.00
10079;BME280;5078;42.544;22.966;2023-02-04T09:25:12;93499.59;;;2.66;100.00
10079;BME280;5078;42.544;22.966;2023-02-04T09:27:39;93490.50;;;2.41;100.00
10079;BME280;5078;42.544;22.966;2023-02-04T09:30:06;93490.81;;;2.67;100.00
10079;BME280;5078;42.544;22.966;2023-02-04T09:32:35;93490.53;;;2.80;100.00
10079;BME280;5078;42.544;22.966;2023-02-04T09:35:01;93490.13;;;2.85;100.00
10079;BME280;5078;42.544;22.966;2023-02-04T09:37:28;93480.88;;;2.80;100.00
10079;BME280;5078;42.544;22.966;2023-02-04T09:39:55;93478.97;;;2.63;100.00
10079;BME280;5078;42.544;22.966;2023-02-04T09:42:24;93483.50;;;2.80;100.00
10079;BME280;5078;42.544;22.966;2023-02-04T09:44:52;93479.78;;;2.83;100.00
10079;BME280;5078;42.544;22.966;2023-02-04T09:47:21;93474.25;;;2.76;100.00
10079;BME280;5078;42.544;22.966;2023-02-04T09:49:50;93474.53;;;2.73;100.00
10079;BME280;5078;42.544;22.966;2023-02-04T09:52:18;93459.66;;;2.74;100.00
10079;BME280;5078;42.544;22.966;2023-02-04T09:54:45;93462.84;;;2.58;100.00
10079;BME280;5078;42.544;22.966;2023-02-04T09:57:14;93469.47;;;2.62;100.00
10079;BME280;5078;42.544;22.966;2023-02-04T09:59:41;93467.94;;;2.50;100.00
10079;BME280;5078;42.544;22.966;2023-02-04T10:02:18;93457.59;;;2.58;100.00
10079;BME280;5078;42.544;22.966;2023-02-04T10:04:46;93460.47;;;2.74;100.00
10079;BME280;5078;42.544;22.966;2023-02-04T10:07:16;93455.66;;;2.79;100.00
10079;BME280;5078;42.544;22.966;2023-02-04T10:09:46;93459.25;;;2.88;100.00
10079;BME280;5078;42.544;22.966;2023-02-04T10:12:13;93464.75;;;2.46;100.00
10079;BME280;5078;42.544;22.966;2023-02-04T10:14:40;93453.03;;;2.21;100.00
10079;BME280;5078;42.544;22.966;2023-02-04T10:17:09;93450.84;;;2.36;100.00
10079;BME280;5078;42.544;22.966;2023-02-04T10:19:36;93449.34;;;2.43;100.00
10079;BME280;5078;42.544;22.966;2023-02-04T10:22:10;93449.06;;;2.56;100.00
10079;BME280;5078;42.544;22.966;2023-02-04T10:24:46;93425.78;;;2.53;100.00
10079;BME280;5078;42.544;22.966;2023-02-04T10:27:13;93440.38;;;2.75;100.00
10079;BME280;5078;42.544;22.966;2023-02-04T10:29:42;93432.09;;;2.79;100.00
10079;BME280;5078;42.544;22.966;2023-02-04T10:32:29;93428.66;;;2.59;100.00
10079;BME280;5078;42.544;22.966;2023-02-04T10:34:59;93432.94;;;2.70;100.00
10079;BME280;5078;42.544;22.966;2023-02-04T10:37:26;93436.22;;;2.82;100.00
10079;BME280;5078;42.544;22.966;2023-02-04T10:39:55;93428.81;;;2.58;100.00
10079;BME280;5078;42.544;22.966;2023-02-04T10:42:24;93428.81;;;2.48;100.00
10079;BME280;5078;42.544;22.966;2023-02-04T10:44:51;93428.81;;;2.38;100.00
10079;BME280;5078;42.544;22.966;2023-02-04T10:47:19;93422.19;;;2.64;100.00
10079;BME280;5078;42.544;22.966;2023-02-04T10:49:54;93416.44;;;2.50;100.00
10079;BME280;5078;42.544;22.966;2023-02-04T10:52:22;93406.78;;;2.31;100.00
10079;BME280;5078;42.544;22.966;2023-02-04T10:54:50;93404.97;;;2.32;100.00
10079;BME280;5078;42.544;22.966;2023-02-04T10:57:21;93377.59;;;2.46;100.00
10079;BME280;5078;42.544;22.966;2023-02-04T10:59:50;93390.41;;;2.49;100.00
10079;BME280;5078;42.544;22.966;2023-02-04T11:02:31;93390.38;;;2.58;100.00
10079;BME280;5078;42.544;22.966;2023-02-04T11:05:00;93392.88;;;2.60;100.00
10079;BME280;5078;42.544;22.966;2023-02-04T11:07:28;93387.34;;;2.73;100.00
10079;BME280;5078;42.544;22.966;2023-02-04T11:09:55;93391.59;;;2.74;100.00
10079;BME280;5078;42.544;22.966;2023-02-04T11:12:36;93388.53;;;2.98;100.00
10079;BME280;5078;42.544;22.966;2023-02-04T11:15:03;93384.94;;;2.99;100.00
10079;BME280;5078;42.544;22.966;2023-02-04T11:17:32;93369.53;;;2.96;100.00
10079;BME280;5078;42.544;22.966;2023-02-04T11:19:59;93391.22;;;3.16;100.00
10079;BME280;5078;42.544;22.966;2023-02-04T11:22:36;93383.50;;;3.14;100.00
10079;BME280;5078;42.544;22.966;2023-02-04T11:25:30;93385.72;;;3.19;100.00
10079;BME280;5078;42.544;22.966;2023-02-04T11:27:58;93379.09;;;3.24;100.00
10079;BME280;5078;42.544;22.966;2023-02-04T11:30:30;93380.44;;;2.81;100.00
10079;BME280;5078;42.544;22.966;2023-02-04T11:33:00;93370.31;;;3.06;100.00
10079;BME280;5078;42.544;22.966;2023-02-04T11:35:28;93376.41;;;3.34;100.00
10079;BME280;5078;42.544;22.966;2023-02-04T11:37:55;93368.88;;;3.21;100.00
10079;BME280;5078;42.544;22.966;2023-02-04T11:40:30;93366.66;;;3.54;100.00
10079;BME280;5078;42.544;22.966;2023-02-04T11:43:01;93349.63;;;3.68;100.00
10079;BME280;5078;42.544;22.966;2023-02-04T11:45:31;93353.34;;;3.93;100.00
10079;BME280;5078;42.544;22.966;2023-02-04T11:48:02;93348.22;;;3.92;100.00
10079;BME280;5078;42.544;22.966;2023-02-04T11:50:31;93355.19;;;3.83;100.00
10079;BME280;5078;42.544;22.966;2023-02-04T11:53:00;93349.72;;;3.94;100.00
10079;BME280;5078;42.544;22.966;2023-02-04T11:55:28;93352.38;;;4.12;100.00
10079;BME280;5078;42.544;22.966;2023-02-04T11:57:56;93351.41;;;3.95;100.00
10079;BME280;5078;42.544;22.966;2023-02-04T12:00:27;93348.78;;;3.95;100.00
10079;BME280;5078;42.544;22.966;2023-02-04T12:03:32;93350.34;;;4.06;100.00
10079;BME280;5078;42.544;22.966;2023-02-04T12:10:26;93337.50;;;3.67;100.00
10079;BME280;5078;42.544;22.966;2023-02-04T12:12:55;93346.97;;;3.78;100.00
10079;BME280;5078;42.544;22.966;2023-02-04T12:15:32;93334.97;;;3.75;100.00
10079;BME280;5078;42.544;22.966;2023-02-04T12:21:12;93336.19;;;3.53;100.00
10079;BME280;5078;42.544;22.966;2023-02-04T12:23:40;93349.69;;;3.58;100.00
10079;BME280;5078;42.544;22.966;2023-02-04T12:26:08;93348.97;;;3.38;100.00
10079;BME280;5078;42.544;22.966;2023-02-04T12:28:34;93342.97;;;3.74;100.00
10079;BME280;5078;42.544;22.966;2023-02-04T12:31:03;93344.25;;;3.70;100.00
10079;BME280;5078;42.544;22.966;2023-02-04T12:33:29;93339.84;;;3.88;100.00
10079;BME280;5078;42.544;22.966;2023-02-04T12:35:56;93332.28;;;3.85;100.00
10079;BME280;5078;42.544;22.966;2023-02-04T12:38:23;93347.28;;;3.93;100.00
10079;BME280;5078;42.544;22.966;2023-02-04T12:40:51;93342.47;;;4.06;100.00
10079;BME280;5078;42.544;22.966;2023-02-04T12:43:18;93352.38;;;4.12;100.00
10079;BME280;5078;42.544;22.966;2023-02-04T12:45:45;93346.75;;;4.25;100.00
10079;BME280;5078;42.544;22.966;2023-02-04T12:48:15;93342.78;;;3.85;100.00
10079;BME280;5078;42.544;22.966;2023-02-04T12:50:42;93351.47;;;3.30;100.00
10079;BME280;5078;42.544;22.966;2023-02-04T12:53:08;93352.59;;;3.28;100.00
10079;BME280;5078;42.544;22.966;2023-02-04T12:55:35;93354.47;;;3.08;100.00
10079;BME280;5078;42.544;22.966;2023-02-04T12:58:02;93361.44;;;3.17;100.00
10079;BME280;5078;42.544;22.966;2023-02-04T13:00:29;93359.53;;;3.09;100.00
10079;BME280;5078;42.544;22.966;2023-02-04T13:02:56;93356.06;;;3.18;100.00
10079;BME280;5078;42.544;22.966;2023-02-04T13:05:25;93355.78;;;3.21;100.00
10079;BME280;5078;42.544;22.966;2023-02-04T13:07:53;93350.59;;;3.39;100.00
10079;BME280;5078;42.544;22.966;2023-02-04T13:10:19;93349.16;;;3.55;100.00
10079;BME280;5078;42.544;22.966;2023-02-04T13:12:48;93352.38;;;3.66;100.00
10079;BME280;5078;42.544;22.966;2023-02-04T13:15:15;93349.56;;;3.78;100.00